createdAt,value
2017-08-29T00:03:18.000Z,24.14
2017-08-29T00:13:17.000Z,24.14
2017-08-29T00:33:18.000Z,24.05
2017-08-29T00:53:18.000Z,24.06
2017-08-29T01:03:17.000Z,24.11
2017-08-29T01:13:17.000Z,23.94
2017-08-29T01:23:17.000Z,24.09
2017-08-29T01:33:17.000Z,23.92
2017-08-29T01:43:17.000Z,24.03
2017-08-29T01:53:17.000Z,24.01
2017-08-29T02:03:17.000Z,23.94
2017-08-29T02:13:17.000Z,23.95
2017-08-29T02:23:17.000Z,23.84
2017-08-29T02:33:17.000Z,23.79
2017-08-29T02:43:17.000Z,23.83
2017-08-29T02:53:17.000Z,23.68
2017-08-29T03:03:18.000Z,23.58
2017-08-29T03:13:18.000Z,23.11
2017-08-29T03:23:18.000Z,23.56
2017-08-29T03:33:18.000Z,23.62
2017-08-29T03:43:18.000Z,23.65
2017-08-29T03:53:18.000Z,23.53
2017-08-29T04:03:18.000Z,23.61
2017-08-29T04:13:18.000Z,23.54
2017-08-29T04:23:18.000Z,23.55
2017-08-29T04:33:18.000Z,23.28
2017-08-29T04:43:18.000Z,23.39
2017-08-29T04:53:18.000Z,22.85
2017-08-29T05:03:18.000Z,23.34
2017-08-29T05:13:18.000Z,23.25
2017-08-29T05:23:18.000Z,23.26
2017-08-29T05:33:18.000Z,22.69
2017-08-29T05:43:18.000Z,22.64
2017-08-29T05:53:18.000Z,22.54
2017-08-29T06:03:18.000Z,22.63
2017-08-29T06:13:18.000Z,22.62
2017-08-29T06:23:18.000Z,22.76
2017-08-29T06:33:18.000Z,22.59
2017-08-29T06:43:18.000Z,22.52
2017-08-29T06:53:18.000Z,22.52
2017-08-29T07:03:18.000Z,22.69
2017-08-29T07:13:18.000Z,22.91
2017-08-29T07:23:18.000Z,23.01
2017-08-29T07:33:18.000Z,23.05
2017-08-29T07:43:18.000Z,23.04
2017-08-29T07:53:18.000Z,23.16
2017-08-29T08:03:18.000Z,23.45
2017-08-29T08:13:18.000Z,23.71
2017-08-29T08:23:18.000Z,23.9
2017-08-29T08:33:18.000Z,24.1
2017-08-29T08:43:18.000Z,24.32
2017-08-29T08:53:18.000Z,24.4
2017-08-29T09:03:18.000Z,24.7
2017-08-29T09:13:18.000Z,24.87
2017-08-29T09:23:18.000Z,25.02
2017-08-29T09:33:18.000Z,25.27
2017-08-29T09:43:18.000Z,25.38
2017-08-29T09:53:18.000Z,25.59
2017-08-29T10:03:18.000Z,25.87
2017-08-29T10:13:18.000Z,26.09
2017-08-29T10:23:18.000Z,26.28
2017-08-29T10:33:18.000Z,26.38
2017-08-29T10:43:19.000Z,26.46
2017-08-29T10:53:19.000Z,26.63
2017-08-29T11:03:19.000Z,26.7
2017-08-29T11:13:19.000Z,26.68
2017-08-29T11:23:19.000Z,26.82
2017-08-29T11:33:19.000Z,26.9
2017-08-29T11:43:19.000Z,27.05
2017-08-29T11:53:19.000Z,27.07
2017-08-29T12:03:19.000Z,27.03
2017-08-29T12:13:19.000Z,27.26
2017-08-29T12:23:19.000Z,27.19
2017-08-29T12:33:19.000Z,27.26
2017-08-29T12:43:19.000Z,27.28
2017-08-29T12:53:19.000Z,27.24
2017-08-29T13:03:19.000Z,27.36
2017-08-29T13:13:19.000Z,27.3
2017-08-29T13:23:19.000Z,27.34
2017-08-29T13:33:19.000Z,27.32
2017-08-29T13:43:19.000Z,27.28
2017-08-29T13:53:19.000Z,27.24
2017-08-29T14:03:19.000Z,27.33
2017-08-29T14:13:19.000Z,27.33
2017-08-29T14:23:19.000Z,27.31
2017-08-29T14:33:19.000Z,27.32
2017-08-29T14:43:19.000Z,27.37
2017-08-29T14:53:19.000Z,27.34
2017-08-29T15:03:19.000Z,27.34
2017-08-29T15:13:19.000Z,27.33
2017-08-29T15:23:19.000Z,27.29
2017-08-29T15:33:19.000Z,27.34
2017-08-29T15:43:19.000Z,27.34
2017-08-29T15:53:19.000Z,27.3
2017-08-29T16:03:19.000Z,27.31
2017-08-29T16:13:19.000Z,27.31
2017-08-29T16:23:19.000Z,27.31
2017-08-29T16:33:19.000Z,27.3
2017-08-29T16:43:19.000Z,27.27
2017-08-29T16:53:19.000Z,27.28
2017-08-29T17:03:19.000Z,27.26
2017-08-29T17:13:19.000Z,27.23
2017-08-29T17:23:19.000Z,27.24
2017-08-29T17:33:19.000Z,27.21
2017-08-29T17:43:20.000Z,27.14
2017-08-29T17:53:19.000Z,27.08
2017-08-29T18:03:19.000Z,27.06
2017-08-29T18:13:19.000Z,26.94
2017-08-29T18:23:19.000Z,26.89
2017-08-29T18:33:19.000Z,26.84
2017-08-29T18:43:19.000Z,26.75
2017-08-29T18:53:19.000Z,26.7
2017-08-29T19:03:21.000Z,26.71
2017-08-29T19:13:20.000Z,26.64
2017-08-29T19:23:20.000Z,26.64
2017-08-29T19:33:20.000Z,26.71
2017-08-29T19:43:20.000Z,26.7
2017-08-29T19:53:20.000Z,26.66
2017-08-29T20:03:20.000Z,26.6
2017-08-29T20:13:20.000Z,26.58
2017-08-29T20:23:20.000Z,26.56
2017-08-29T20:33:20.000Z,26.53
2017-08-29T20:43:20.000Z,26.48
2017-08-29T20:53:20.000Z,26.46
2017-08-29T21:03:20.000Z,26.4
2017-08-29T21:13:20.000Z,26.34
2017-08-29T21:23:20.000Z,26.38
2017-08-29T21:33:20.000Z,26.41
2017-08-29T21:43:20.000Z,26.24
2017-08-29T21:53:20.000Z,25.99
2017-08-29T22:03:20.000Z,25.91
2017-08-29T22:13:20.000Z,25.87
2017-08-29T22:23:20.000Z,25.74
2017-08-29T22:33:20.000Z,25.83
2017-08-29T22:43:20.000Z,25.88
2017-08-29T22:53:20.000Z,25.81
2017-08-29T23:03:20.000Z,25.65
2017-08-29T23:13:20.000Z,25.58
2017-08-29T23:23:20.000Z,25.4
2017-08-29T23:33:20.000Z,25.35
2017-08-29T23:43:20.000Z,25.34
2017-08-29T23:53:20.000Z,25.38
